createdAt,value
2017-12-29T00:01:28.126Z,99.90
2017-12-29T00:03:55.646Z,99.90
2017-12-29T00:06:23.955Z,99.90
2017-12-29T00:08:51.475Z,99.90
2017-12-29T00:11:19.001Z,99.90
2017-12-29T00:13:46.550Z,99.90
2017-12-29T00:16:14.086Z,99.90
2017-12-29T00:18:41.621Z,99.90
2017-12-29T00:21:09.927Z,99.90
2017-12-29T00:23:37.447Z,99.90
2017-12-29T00:26:05.749Z,99.90
2017-12-29T00:28:33.292Z,99.90
2017-12-29T00:31:01.579Z,99.90
2017-12-29T00:33:29.099Z,99.90
2017-12-29T00:35:56.640Z,99.90
2017-12-29T00:38:24.159Z,99.90
2017-12-29T00:40:51.679Z,99.90
2017-12-29T00:43:20.005Z,99.90
2017-12-29T00:45:47.537Z,99.90
2017-12-29T00:48:15.856Z,99.90
2017-12-29T00:50:43.425Z,99.90
2017-12-29T00:53:10.943Z,99.90
2017-12-29T00:55:38.463Z,99.90
2017-12-29T00:58:06.060Z,99.90
2017-12-29T01:00:33.579Z,99.90
2017-12-29T01:03:01.098Z,99.90
2017-12-29T01:05:28.693Z,99.90
2017-12-29T01:07:56.214Z,99.90
2017-12-29T01:10:23.735Z,99.90
2017-12-29T01:12:52.043Z,99.90
2017-12-29T01:15:19.637Z,99.90
2017-12-29T01:17:47.156Z,99.90
2017-12-29T01:20:14.725Z,99.90
2017-12-29T01:22:42.299Z,99.90
2017-12-29T01:25:09.837Z,99.90
2017-12-29T01:27:37.398Z,99.90
2017-12-29T01:30:05.023Z,99.90
2017-12-29T01:32:33.352Z,99.90
2017-12-29T01:35:00.909Z,99.90
2017-12-29T01:37:28.446Z,99.90
2017-12-29T01:39:55.981Z,99.90
2017-12-29T01:42:24.302Z,99.90
2017-12-29T01:44:51.823Z,99.90
2017-12-29T01:47:20.459Z,99.90
2017-12-29T01:49:48.007Z,99.90
2017-12-29T01:52:15.541Z,99.90
2017-12-29T01:54:43.077Z,99.90
2017-12-29T01:57:11.402Z,99.90
2017-12-29T01:59:38.923Z,99.90
2017-12-29T02:02:07.211Z,99.90
2017-12-29T02:04:34.765Z,99.90
2017-12-29T02:07:02.288Z,99.90
2017-12-29T02:09:30.133Z,99.90
2017-12-29T02:11:57.688Z,99.90
2017-12-29T02:14:25.221Z,99.90
2017-12-29T02:16:52.757Z,99.90
2017-12-29T02:19:21.073Z,99.90
2017-12-29T02:21:48.847Z,99.90
2017-12-29T02:24:16.372Z,99.90
2017-12-29T02:26:44.232Z,99.90
2017-12-29T02:29:11.755Z,99.90
2017-12-29T02:31:39.277Z,99.90
2017-12-29T02:34:06.815Z,99.90
2017-12-29T02:36:34.366Z,99.90
2017-12-29T02:39:01.887Z,99.90
2017-12-29T02:41:29.731Z,99.90
2017-12-29T02:43:57.251Z,99.90
2017-12-29T02:46:24.771Z,99.90
2017-12-29T02:48:52.315Z,99.90
2017-12-29T02:51:19.838Z,99.90
2017-12-29T02:53:47.381Z,99.90
2017-12-29T02:56:14.933Z,99.90
2017-12-29T02:58:43.234Z,99.90
2017-12-29T03:01:10.771Z,99.90
2017-12-29T03:03:39.055Z,99.90
2017-12-29T03:06:06.616Z,99.90
2017-12-29T03:08:34.136Z,99.90
2017-12-29T03:11:01.667Z,99.90
2017-12-29T03:13:29.217Z,99.90
2017-12-29T03:15:56.739Z,99.90
2017-12-29T03:18:25.040Z,99.90
2017-12-29T03:20:52.582Z,99.90
2017-12-29T03:23:20.177Z,99.90
2017-12-29T03:25:47.708Z,99.90
2017-12-29T03:28:15.245Z,99.90
2017-12-29T03:30:43.555Z,99.90
2017-12-29T03:33:11.080Z,99.90
2017-12-29T03:35:39.401Z,99.90
2017-12-29T03:38:06.933Z,99.90
2017-12-29T03:40:34.485Z,99.90
2017-12-29T03:43:02.293Z,99.90
2017-12-29T03:45:29.811Z,99.90
2017-12-29T03:47:57.362Z,99.90
2017-12-29T03:50:25.647Z,99.90
2017-12-29T03:52:53.191Z,99.90
2017-12-29T03:55:21.531Z,99.90
2017-12-29T03:57:49.832Z,99.90
2017-12-29T04:00:17.451Z,99.90
2017-12-29T04:02:44.987Z,99.90
2017-12-29T04:05:12.526Z,99.90
2017-12-29T04:07:40.829Z,99.90
2017-12-29T04:10:08.385Z,99.90
2017-12-29T04:12:35.951Z,99.90
2017-12-29T04:15:03.508Z,99.90
2017-12-29T04:17:31.042Z,99.90
2017-12-29T04:19:59.349Z,99.90
2017-12-29T04:22:26.886Z,99.90
2017-12-29T04:24:54.425Z,99.90
2017-12-29T04:27:22.740Z,99.90
2017-12-29T04:29:50.526Z,99.90
2017-12-29T04:32:18.088Z,99.90
2017-12-29T04:34:45.615Z,99.90
2017-12-29T04:37:13.187Z,99.90
2017-12-29T04:39:40.741Z,99.90
2017-12-29T04:42:08.262Z,99.90
2017-12-29T04:44:36.567Z,99.90
2017-12-29T04:47:04.105Z,99.90
2017-12-29T04:49:31.661Z,99.90
2017-12-29T04:51:59.961Z,99.90
2017-12-29T04:54:27.487Z,99.90
2017-12-29T04:56:55.791Z,99.90
2017-12-29T04:59:23.324Z,99.90
2017-12-29T05:01:51.633Z,99.90
2017-12-29T05:04:19.204Z,99.90
2017-12-29T05:06:46.744Z,99.90
2017-12-29T05:09:14.277Z,99.90
2017-12-29T05:11:42.563Z,99.90
2017-12-29T05:14:10.874Z,99.90
2017-12-29T05:16:38.405Z,99.90
2017-12-29T05:19:05.956Z,99.90
2017-12-29T05:21:34.260Z,99.90
2017-12-29T05:24:01.802Z,99.90
2017-12-29T05:26:29.323Z,99.90
2017-12-29T05:28:56.857Z,99.90
2017-12-29T05:31:24.400Z,99.90
2017-12-29T05:33:51.923Z,99.90
2017-12-29T05:36:20.342Z,99.90
2017-12-29T05:38:47.874Z,99.90
2017-12-29T05:41:15.421Z,99.90
2017-12-29T05:43:43.720Z,99.90
2017-12-29T05:46:11.293Z,99.90
2017-12-29T05:48:38.830Z,99.90
2017-12-29T05:51:06.365Z,99.90
2017-12-29T05:53:34.680Z,99.90
2017-12-29T05:56:02.247Z,99.90
2017-12-29T05:58:29.791Z,99.90
2017-12-29T06:00:57.310Z,99.90
2017-12-29T06:03:24.827Z,99.90
2017-12-29T06:05:52.360Z,99.90
2017-12-29T06:08:19.880Z,99.90
2017-12-29T06:10:47.419Z,99.90
2017-12-29T06:13:14.957Z,99.90
2017-12-29T06:15:42.510Z,99.90
2017-12-29T06:18:10.041Z,99.90
2017-12-29T06:20:37.568Z,99.90
2017-12-29T06:23:05.121Z,99.90
2017-12-29T06:25:33.449Z,99.90
2017-12-29T06:28:00.997Z,99.90
2017-12-29T06:30:28.525Z,99.90
2017-12-29T06:32:56.078Z,99.90
2017-12-29T06:35:23.613Z,99.90
2017-12-29T06:37:51.169Z,99.90
2017-12-29T06:40:18.698Z,99.90
2017-12-29T06:42:46.225Z,99.90
2017-12-29T06:45:14.531Z,99.90
2017-12-29T06:47:42.065Z,99.90
2017-12-29T06:50:10.367Z,99.90
2017-12-29T06:52:37.900Z,99.90
2017-12-29T06:55:06.207Z,99.90
2017-12-29T06:57:33.734Z,99.90
2017-12-29T07:00:02.041Z,99.90
2017-12-29T07:02:29.582Z,99.90
2017-12-29T07:04:57.867Z,99.90
2017-12-29T07:07:25.399Z,99.90
2017-12-29T07:09:53.687Z,99.90
2017-12-29T07:12:22.002Z,99.90
2017-12-29T07:14:49.525Z,99.90
2017-12-29T07:17:17.815Z,99.90
2017-12-29T07:19:45.355Z,99.90
2017-12-29T07:22:13.643Z,99.90
2017-12-29T07:24:41.208Z,99.90
2017-12-29T07:27:08.734Z,99.90
2017-12-29T07:29:37.057Z,99.90
2017-12-29T07:32:04.591Z,99.90
2017-12-29T07:34:32.879Z,99.90
2017-12-29T07:37:00.453Z,99.90
2017-12-29T07:39:27.975Z,99.90
2017-12-29T07:41:56.289Z,99.90
2017-12-29T07:44:24.074Z,99.90
2017-12-29T07:46:52.397Z,99.90
2017-12-29T07:49:20.682Z,99.90
2017-12-29T07:51:48.217Z,99.90
2017-12-29T07:54:15.759Z,99.90
2017-12-29T07:56:43.292Z,99.90
2017-12-29T07:59:10.845Z,99.90
2017-12-29T08:01:38.367Z,99.90
2017-12-29T08:04:06.674Z,99.90
2017-12-29T08:06:34.205Z,99.90
2017-12-29T08:09:02.484Z,99.90
2017-12-29T08:11:30.825Z,99.90
2017-12-29T08:13:58.357Z,99.90
2017-12-29T08:16:25.913Z,99.90
2017-12-29T08:18:53.446Z,99.90
2017-12-29T08:21:20.994Z,99.90
2017-12-29T08:23:49.293Z,99.90
2017-12-29T08:26:16.818Z,99.90
2017-12-29T08:28:45.146Z,99.90
2017-12-29T08:31:12.685Z,99.90
2017-12-29T08:33:40.228Z,99.90
2017-12-29T08:36:07.751Z,99.90
2017-12-29T08:38:35.290Z,99.90
2017-12-29T08:41:02.811Z,99.90
2017-12-29T08:43:30.345Z,99.90
2017-12-29T08:45:58.646Z,99.90
2017-12-29T08:48:26.189Z,99.90
2017-12-29T08:50:54.500Z,99.90
2017-12-29T08:53:22.040Z,99.90
2017-12-29T08:55:49.591Z,99.90
2017-12-29T08:58:17.125Z,99.90
2017-12-29T09:00:45.424Z,99.90
2017-12-29T09:03:12.978Z,99.90
2017-12-29T09:05:41.272Z,99.90
2017-12-29T09:08:09.067Z,99.90
2017-12-29T09:10:36.616Z,99.90
2017-12-29T09:13:04.179Z,99.90
2017-12-29T09:15:31.952Z,99.90
2017-12-29T09:17:59.486Z,99.90
2017-12-29T09:20:27.022Z,99.90
2017-12-29T09:22:55.307Z,99.90
2017-12-29T09:25:22.869Z,99.90
2017-12-29T09:27:50.395Z,99.90
2017-12-29T09:30:17.962Z,99.90
2017-12-29T09:32:46.257Z,99.90
2017-12-29T09:35:13.789Z,99.90
2017-12-29T09:37:41.381Z,99.90
2017-12-29T09:40:08.985Z,99.90
2017-12-29T09:42:36.537Z,99.90
2017-12-29T09:45:04.068Z,99.90
2017-12-29T09:47:31.603Z,99.90
2017-12-29T09:49:59.909Z,99.90
2017-12-29T09:52:27.437Z,99.90
2017-12-29T09:54:55.746Z,99.90
2017-12-29T09:57:23.265Z,99.90
2017-12-29T09:59:51.800Z,99.90
2017-12-29T10:02:20.097Z,99.90
2017-12-29T10:04:47.636Z,99.90
2017-12-29T10:07:15.163Z,99.90
2017-12-29T10:09:42.693Z,99.90
2017-12-29T10:12:10.987Z,99.90
2017-12-29T10:14:38.791Z,99.90
2017-12-29T10:17:06.324Z,99.90
2017-12-29T10:19:33.871Z,99.90
2017-12-29T10:22:01.416Z,99.90
2017-12-29T10:24:29.708Z,99.90
2017-12-29T10:26:57.228Z,99.90
2017-12-29T10:29:24.786Z,99.90
2017-12-29T10:31:52.322Z,99.90
2017-12-29T10:34:19.852Z,99.60
2017-12-29T10:36:47.371Z,99.90
2017-12-29T10:39:15.678Z,99.90
2017-12-29T10:41:43.190Z,99.90
2017-12-29T10:44:10.935Z,95.90
2017-12-29T10:46:38.464Z,98.00
2017-12-29T10:49:05.996Z,99.50
2017-12-29T10:51:34.300Z,96.30
2017-12-29T10:54:01.811Z,96.40
2017-12-29T10:56:29.357Z,97.00
2017-12-29T10:58:56.993Z,90.80
2017-12-29T11:01:24.521Z,94.30
2017-12-29T11:03:52.815Z,95.00
2017-12-29T11:06:20.332Z,95.00
2017-12-29T11:08:47.860Z,93.30
2017-12-29T11:11:15.384Z,96.00
2017-12-29T11:13:42.943Z,96.80
2017-12-29T11:16:10.463Z,95.40
2017-12-29T11:18:37.979Z,97.70
2017-12-29T11:21:05.514Z,99.90
2017-12-29T11:23:33.035Z,99.90
2017-12-29T11:26:00.567Z,99.90
2017-12-29T11:28:28.097Z,99.90
2017-12-29T11:30:55.644Z,99.90
2017-12-29T11:33:23.193Z,99.20
2017-12-29T11:35:50.735Z,99.90
2017-12-29T11:38:18.281Z,99.90
2017-12-29T11:40:45.809Z,99.90
2017-12-29T11:43:13.353Z,99.90
2017-12-29T11:45:40.881Z,99.90
2017-12-29T11:48:09.193Z,99.50
2017-12-29T11:50:36.709Z,99.40
2017-12-29T11:53:04.219Z,98.70
2017-12-29T11:55:31.751Z,96.30
2017-12-29T11:57:59.281Z,94.20
2017-12-29T12:00:26.828Z,96.00
2017-12-29T12:02:54.347Z,98.10
2017-12-29T12:05:21.896Z,99.90
2017-12-29T12:07:49.420Z,99.30
2017-12-29T12:10:17.718Z,95.90
2017-12-29T12:12:45.259Z,95.80
2017-12-29T12:15:13.042Z,98.90
2017-12-29T12:17:40.575Z,96.30
2017-12-29T12:20:08.855Z,98.20
2017-12-29T12:22:37.188Z,95.20
2017-12-29T12:25:04.718Z,95.00
2017-12-29T12:27:32.253Z,97.40
2017-12-29T12:30:00.573Z,97.40
2017-12-29T12:32:28.349Z,97.30
2017-12-29T12:34:55.893Z,95.80
2017-12-29T12:37:23.465Z,96.10
2017-12-29T12:39:50.999Z,93.20
2017-12-29T12:42:18.530Z,95.40
2017-12-29T12:44:47.065Z,97.60
2017-12-29T12:47:14.616Z,97.50
2017-12-29T12:49:42.149Z,97.50
2017-12-29T12:52:09.697Z,97.40
2017-12-29T12:54:37.503Z,97.60
2017-12-29T12:57:05.039Z,99.30
2017-12-29T12:59:32.559Z,99.50
2017-12-29T13:02:00.080Z,99.90
2017-12-29T13:04:27.620Z,99.90
2017-12-29T13:06:55.149Z,99.50
2017-12-29T13:09:24.155Z,99.90
2017-12-29T13:11:51.685Z,99.90
2017-12-29T13:14:19.228Z,99.80
2017-12-29T13:16:46.794Z,99.90
2017-12-29T13:19:14.457Z,99.90
2017-12-29T13:21:42.005Z,99.90
2017-12-29T13:24:09.533Z,99.90
2017-12-29T13:26:37.063Z,99.90
2017-12-29T13:29:04.578Z,99.90
2017-12-29T13:31:32.111Z,99.90
2017-12-29T13:33:59.878Z,99.90
2017-12-29T13:36:27.391Z,99.90
2017-12-29T13:38:55.687Z,99.90
2017-12-29T13:41:23.225Z,99.90
2017-12-29T13:43:51.523Z,99.90
2017-12-29T13:46:19.056Z,99.90
2017-12-29T13:48:47.360Z,99.90
2017-12-29T13:51:14.889Z,99.90
2017-12-29T13:53:43.175Z,99.90
2017-12-29T13:56:11.804Z,99.90
2017-12-29T13:58:39.333Z,99.90
2017-12-29T14:01:06.876Z,99.90
2017-12-29T14:03:35.162Z,99.90
2017-12-29T14:06:02.717Z,99.90
2017-12-29T14:08:30.245Z,99.90
2017-12-29T14:10:57.777Z,99.90
2017-12-29T14:13:25.539Z,99.90
2017-12-29T14:15:53.055Z,99.90
2017-12-29T14:18:20.621Z,99.90
2017-12-29T14:20:48.199Z,99.90
2017-12-29T14:23:16.801Z,99.90
2017-12-29T14:25:44.311Z,99.90
2017-12-29T14:28:12.835Z,99.90
2017-12-29T14:30:40.377Z,99.90
2017-12-29T14:33:07.909Z,99.90
2017-12-29T14:35:35.478Z,99.90
2017-12-29T14:38:03.013Z,99.90
2017-12-29T14:40:31.325Z,99.90
2017-12-29T14:42:59.113Z,99.90
2017-12-29T14:45:26.632Z,99.90
2017-12-29T14:47:54.164Z,99.90
2017-12-29T14:50:22.821Z,99.90
2017-12-29T14:52:50.365Z,99.90
2017-12-29T14:55:17.880Z,99.90
2017-12-29T14:57:46.186Z,99.90
2017-12-29T15:00:13.699Z,99.90
2017-12-29T15:02:41.229Z,99.90
2017-12-29T15:05:08.773Z,99.90
2017-12-29T15:07:36.305Z,99.90
2017-12-29T15:10:03.835Z,99.90
2017-12-29T15:12:31.348Z,99.90
2017-12-29T15:14:58.883Z,99.90
2017-12-29T15:17:26.417Z,99.90
2017-12-29T15:19:54.727Z,99.90
2017-12-29T15:22:22.281Z,99.90
2017-12-29T15:24:49.817Z,99.90
2017-12-29T15:27:18.114Z,99.90
2017-12-29T15:29:45.641Z,99.90
2017-12-29T15:32:13.193Z,99.90
2017-12-29T15:34:40.725Z,99.90
2017-12-29T15:37:08.257Z,99.90
2017-12-29T15:39:35.790Z,99.90
2017-12-29T15:42:04.085Z,99.90
2017-12-29T15:44:31.879Z,99.90
2017-12-29T15:46:59.409Z,99.90
2017-12-29T15:49:26.957Z,99.90
2017-12-29T15:51:54.493Z,99.90
2017-12-29T15:54:22.789Z,99.90
2017-12-29T15:56:50.326Z,99.90
2017-12-29T15:59:18.621Z,99.90
2017-12-29T16:01:46.173Z,99.90
2017-12-29T16:04:14.505Z,99.90
2017-12-29T16:06:42.074Z,99.90
2017-12-29T16:09:09.602Z,99.90
2017-12-29T16:11:37.137Z,99.90
2017-12-29T16:14:04.688Z,99.90
2017-12-29T16:16:32.984Z,99.90
2017-12-29T16:19:00.529Z,99.90
2017-12-29T16:21:28.829Z,99.90
2017-12-29T16:23:56.381Z,99.90
2017-12-29T16:26:23.903Z,99.90
2017-12-29T16:28:52.200Z,99.90
2017-12-29T16:31:19.761Z,99.90
2017-12-29T16:33:47.289Z,99.90
2017-12-29T16:36:15.123Z,99.90
2017-12-29T16:38:42.649Z,99.90
2017-12-29T16:41:10.201Z,99.90
2017-12-29T16:43:37.718Z,99.90
2017-12-29T16:46:05.235Z,99.90
2017-12-29T16:48:32.787Z,99.90
2017-12-29T16:51:00.329Z,99.90
2017-12-29T16:53:27.938Z,99.90
2017-12-29T16:55:55.454Z,99.90
2017-12-29T16:58:22.998Z,99.90
2017-12-29T17:00:51.282Z,99.90
2017-12-29T17:03:19.562Z,99.90
2017-12-29T17:05:47.099Z,99.90
2017-12-29T17:08:14.629Z,99.90
2017-12-29T17:10:42.486Z,99.90
2017-12-29T17:13:10.017Z,99.90
2017-12-29T17:15:37.560Z,99.90
2017-12-29T17:18:05.078Z,99.90
2017-12-29T17:20:32.927Z,99.90
2017-12-29T17:23:00.478Z,99.90
2017-12-29T17:25:27.999Z,99.90
2017-12-29T17:27:55.553Z,99.90
2017-12-29T17:30:23.861Z,99.90
2017-12-29T17:32:51.399Z,99.90
2017-12-29T17:35:18.931Z,99.90
2017-12-29T17:37:46.485Z,99.90
2017-12-29T17:40:14.007Z,99.90
2017-12-29T17:42:41.538Z,99.90
2017-12-29T17:58:10.451Z,99.90
2017-12-29T18:00:38.003Z,99.90
2017-12-29T18:03:05.554Z,99.90
2017-12-29T18:05:33.078Z,99.90
2017-12-29T18:08:01.403Z,99.90
2017-12-29T18:10:28.927Z,99.90
2017-12-29T18:12:56.519Z,99.90
2017-12-29T18:15:24.149Z,99.90
2017-12-29T18:17:51.749Z,99.90
2017-12-29T18:20:19.288Z,99.90
2017-12-29T18:22:46.825Z,99.90
2017-12-29T18:25:14.381Z,99.90
2017-12-29T18:27:41.911Z,99.90
2017-12-29T18:30:10.195Z,99.90
2017-12-29T18:32:38.499Z,99.90
2017-12-29T18:35:06.019Z,99.90
2017-12-29T18:37:33.850Z,99.90
2017-12-29T18:40:01.414Z,99.90
2017-12-29T18:42:28.955Z,99.90
2017-12-29T18:44:56.475Z,99.90
2017-12-29T18:47:24.763Z,99.90
2017-12-29T18:49:52.314Z,99.90
2017-12-29T18:52:20.599Z,99.90
2017-12-29T18:54:48.149Z,99.90
2017-12-29T18:57:16.450Z,99.90
2017-12-29T18:59:44.033Z,99.90
2017-12-29T19:02:11.564Z,99.90
2017-12-29T19:04:39.079Z,99.90
2017-12-29T19:07:06.618Z,99.90
2017-12-29T19:09:34.476Z,99.90
2017-12-29T19:12:02.025Z,99.90
2017-12-29T19:14:29.641Z,99.90
2017-12-29T19:16:57.962Z,99.90
2017-12-29T19:19:25.503Z,99.90
2017-12-29T19:21:53.038Z,99.90
2017-12-29T19:24:21.354Z,99.90
2017-12-29T19:26:48.889Z,99.90
2017-12-29T19:29:16.427Z,99.90
2017-12-29T19:31:44.724Z,99.90
2017-12-29T19:34:12.267Z,99.90
2017-12-29T19:36:40.561Z,99.90
2017-12-29T19:39:08.093Z,99.90
2017-12-29T19:41:36.410Z,99.90
2017-12-29T19:44:03.932Z,99.90
2017-12-29T19:46:32.245Z,99.90
2017-12-29T19:48:59.768Z,99.90
2017-12-29T19:51:28.087Z,99.90
2017-12-29T19:53:55.620Z,99.90
2017-12-29T19:56:23.258Z,99.90
2017-12-29T19:58:51.712Z,99.90
2017-12-29T20:01:19.244Z,99.90
2017-12-29T20:03:46.792Z,99.90
2017-12-29T20:06:14.329Z,99.90
2017-12-29T20:08:41.871Z,99.90
2017-12-29T20:11:10.169Z,99.90
2017-12-29T20:13:37.705Z,99.90
2017-12-29T20:16:06.042Z,99.90
2017-12-29T20:18:33.547Z,99.90
2017-12-29T20:21:01.876Z,99.90
2017-12-29T20:23:29.643Z,99.90
2017-12-29T20:25:57.187Z,99.90
2017-12-29T20:28:24.714Z,99.90
2017-12-29T20:30:52.999Z,99.90
2017-12-29T20:33:20.556Z,99.90
2017-12-29T20:35:48.094Z,99.90
2017-12-29T20:38:16.399Z,99.90
2017-12-29T20:40:43.929Z,99.90
2017-12-29T20:43:12.240Z,99.90
2017-12-29T20:45:39.795Z,99.90
2017-12-29T20:48:07.333Z,99.90
2017-12-29T20:50:35.749Z,99.90
2017-12-29T20:53:03.281Z,99.90
2017-12-29T20:55:30.833Z,99.90
2017-12-29T20:57:59.125Z,99.90
2017-12-29T21:00:26.671Z,99.90
2017-12-29T21:02:54.209Z,99.90
2017-12-29T21:05:22.517Z,99.90
2017-12-29T21:07:50.059Z,99.90
2017-12-29T21:10:18.351Z,99.90
2017-12-29T21:12:45.905Z,99.90
2017-12-29T21:15:13.452Z,99.90
2017-12-29T21:17:41.754Z,99.90
2017-12-29T21:20:09.543Z,99.90
2017-12-29T21:22:37.078Z,99.90
2017-12-29T21:25:04.633Z,99.90
2017-12-29T21:27:32.169Z,99.90
2017-12-29T21:30:00.485Z,99.90
2017-12-29T21:32:28.019Z,99.90
2017-12-29T21:34:55.563Z,99.90
2017-12-29T21:37:23.858Z,99.90
2017-12-29T21:39:51.396Z,99.90
2017-12-29T21:42:19.704Z,99.90
2017-12-29T21:44:47.241Z,99.90
2017-12-29T21:47:15.560Z,99.90
2017-12-29T21:49:43.093Z,99.90
2017-12-29T21:52:10.886Z,99.90
2017-12-29T21:54:38.403Z,99.90
2017-12-29T21:57:05.955Z,99.90
2017-12-29T21:59:34.259Z,99.90
2017-12-29T22:02:01.793Z,99.90
2017-12-29T22:04:29.340Z,99.90
2017-12-29T22:06:57.637Z,99.90
2017-12-29T22:09:25.170Z,99.90
2017-12-29T22:11:53.512Z,99.90
2017-12-29T22:14:21.089Z,99.90
2017-12-29T22:16:48.618Z,99.90
2017-12-29T22:19:16.149Z,99.90
2017-12-29T22:21:43.703Z,99.90
2017-12-29T22:24:11.288Z,99.90
2017-12-29T22:26:38.832Z,99.90
2017-12-29T22:29:06.351Z,99.90
2017-12-29T22:31:33.975Z,99.90
2017-12-29T22:34:02.237Z,99.90
2017-12-29T22:36:29.769Z,99.90
2017-12-29T22:38:58.066Z,99.90
2017-12-29T22:41:25.583Z,99.90
2017-12-29T22:43:53.115Z,99.90
2017-12-29T22:46:20.646Z,99.90
2017-12-29T22:48:48.196Z,99.90
2017-12-29T22:51:15.767Z,99.90
2017-12-29T22:53:43.263Z,99.90
2017-12-29T22:56:10.805Z,99.90
2017-12-29T22:58:38.319Z,99.90
2017-12-29T23:01:05.875Z,99.90
2017-12-29T23:03:33.391Z,99.90
2017-12-29T23:06:00.936Z,99.90
2017-12-29T23:08:28.455Z,99.90
2017-12-29T23:10:55.981Z,99.90
2017-12-29T23:13:23.525Z,99.90
2017-12-29T23:15:51.058Z,99.90
2017-12-29T23:18:18.601Z,99.90
2017-12-29T23:20:46.119Z,99.90
2017-12-29T23:23:13.699Z,99.90
2017-12-29T23:25:41.993Z,99.90
2017-12-29T23:28:09.519Z,99.90
2017-12-29T23:30:38.164Z,99.90
2017-12-29T23:33:05.708Z,99.90
2017-12-29T23:35:33.271Z,99.90
2017-12-29T23:38:00.841Z,99.90
2017-12-29T23:40:28.380Z,99.90
2017-12-29T23:42:55.912Z,99.90
2017-12-29T23:45:24.196Z,99.90
2017-12-29T23:47:51.746Z,99.90
2017-12-29T23:50:20.041Z,99.90
2017-12-29T23:52:47.571Z,99.90
2017-12-29T23:55:15.855Z,99.90
2017-12-29T23:57:44.159Z,99.90
